Accueil
METAR-TAF:

METAR-TAF

Aéroports :

Aéroport international de Coni

Coni, Italie

latitude: 44-32-47N, longitude: 007-37-20E, altitude: 386 m

Observation

Le bulletin a été fait il y a 1 heure et 9 minutes, à 08:50 UTC
Vent 3 kt de nord, variant entre nord-ouest et est
Température 9°C
Humidité 71%
Pression 1014 hPa
Visibilité: 7000 m

METAR: LIMZ 030850Z 01003KT 310V090 7000 NSC 09/04 Q1014

Heure: 11:59 (09:59 UTC)

Prévision

Le bulletin a été fait il y a 4 heures et 59 minutes, à 05:00 UTC
Prévision valable du 03 à 06 UTC au 04 à 06 UTC
Vent 6 kt de direction variable
Visibilité 10 km ou plus
pas de nuages en-dessous de 1500 mètres et pas de cumulonimbus.

TAF: LIMZ 030500Z 0306/0406 VRB06KT CAVOK

Observations et prévisions météorologiques de plus de 4000 aéroports (messages METAR et TAF).

Les stations disponibles sont représentées par des disques jaunes et rouges sur la carte.

Passer la souris dessus pour voir le nom de la station.

Cliquer dessus pour voir les observations et prévisions météorologiques.

Pour changer de carte: cliquez sur les boutons verts avec une croix noire pour zoomer, sur le bouton vert avec un tiret pour effectuer un zoom arrière, ou sur les flèches vertes pour les cartes adjacentes.


METAR-TAF: